createdAt,value
2023-04-15T00:00:34.261Z,7.85
2023-04-15T00:03:07.368Z,7.80
2023-04-15T00:05:40.340Z,7.72
2023-04-15T00:08:13.575Z,7.61
2023-04-15T00:10:46.702Z,7.62
2023-04-15T00:13:22.049Z,7.60
2023-04-15T00:15:54.928Z,7.48
2023-04-15T00:18:29.440Z,7.61
2023-04-15T00:21:02.883Z,7.49
2023-04-15T00:23:36.425Z,7.42
2023-04-15T00:26:09.551Z,7.42
2023-04-15T00:28:43.700Z,7.46
2023-04-15T00:31:16.586Z,7.30
2023-04-15T00:33:49.662Z,7.33
2023-04-15T00:36:23.252Z,7.34
2023-04-15T00:38:56.732Z,7.33
2023-04-15T00:41:29.788Z,7.25
2023-04-15T00:44:03.943Z,7.18
2023-04-15T00:46:38.222Z,7.14
2023-04-15T00:49:11.206Z,7.15
2023-04-15T00:51:44.719Z,7.07
2023-04-15T00:54:17.929Z,6.79
2023-04-15T00:56:50.780Z,6.84
2023-04-15T00:59:25.490Z,6.46
2023-04-15T01:01:58.637Z,6.66
2023-04-15T01:04:31.986Z,6.63
2023-04-15T01:07:05.148Z,6.51
2023-04-15T01:09:38.043Z,6.36
2023-04-15T01:12:12.979Z,6.41
2023-04-15T01:14:47.053Z,6.37
2023-04-15T01:17:20.534Z,6.31
2023-04-15T01:19:53.880Z,6.22
2023-04-15T01:22:28.854Z,6.10
2023-04-15T01:25:04.680Z,6.12
2023-04-15T01:27:40.953Z,5.80
2023-04-15T01:30:13.939Z,5.74
2023-04-15T01:32:46.889Z,5.86
2023-04-15T01:35:38.773Z,6.10
2023-04-15T01:38:13.526Z,6.16
2023-04-15T01:40:46.310Z,6.13
2023-04-15T01:43:22.086Z,6.09
2023-04-15T01:45:56.457Z,6.00
2023-04-15T01:48:30.488Z,5.82
2023-04-15T01:51:04.805Z,5.79
2023-04-15T01:53:38.886Z,5.71
2023-04-15T01:56:14.266Z,5.76
2023-04-15T01:58:52.754Z,5.82
2023-04-15T02:01:27.356Z,5.80
2023-04-15T02:04:01.712Z,5.71
2023-04-15T02:06:38.402Z,5.80
2023-04-15T02:09:12.843Z,5.79
2023-04-15T02:11:46.986Z,5.87
2023-04-15T02:14:22.838Z,5.92
2023-04-15T02:16:57.238Z,5.85
2023-04-15T02:19:31.299Z,5.80
2023-04-15T02:22:05.296Z,5.73
2023-04-15T02:24:39.288Z,5.72
2023-04-15T02:27:17.021Z,5.71
2023-04-15T02:29:52.520Z,5.71
2023-04-15T02:32:26.585Z,5.67
2023-04-15T02:35:05.495Z,5.60
2023-04-15T02:37:45.939Z,5.61
2023-04-15T02:40:20.404Z,5.65
2023-04-15T02:42:54.443Z,5.69
2023-04-15T02:45:30.630Z,5.60
2023-04-15T02:48:08.004Z,5.47
2023-04-15T02:50:43.442Z,5.52
2023-04-15T02:53:20.674Z,5.52
2023-04-15T02:55:54.942Z,5.42
2023-04-15T02:58:29.174Z,5.33
2023-04-15T03:01:04.723Z,5.37
2023-04-15T03:03:38.911Z,5.42
2023-04-15T03:06:12.987Z,5.29
2023-04-15T03:08:47.121Z,5.33
2023-04-15T03:11:21.597Z,5.30
2023-04-15T03:13:55.821Z,5.26
2023-04-15T03:16:37.815Z,5.20
2023-04-15T03:19:11.867Z,5.26
2023-04-15T03:21:48.197Z,5.24
2023-04-15T03:24:22.236Z,5.20
2023-04-15T03:26:56.339Z,5.22
2023-04-15T03:29:30.749Z,5.26
2023-04-15T03:32:06.429Z,5.20
2023-04-15T03:34:42.240Z,5.15
2023-04-15T03:37:16.448Z,5.02
2023-04-15T03:39:50.518Z,4.98
2023-04-15T03:42:24.602Z,4.96
2023-04-15T03:44:58.995Z,4.89
2023-04-15T03:47:34.497Z,4.80
2023-04-15T03:50:09.678Z,4.63
2023-04-15T03:52:43.712Z,4.74
2023-04-15T03:55:17.914Z,4.77
2023-04-15T03:57:51.914Z,4.69
2023-04-15T04:00:26.157Z,4.72
2023-04-15T04:03:01.805Z,4.68
2023-04-15T04:05:37.043Z,4.71
2023-04-15T04:08:13.727Z,4.77
2023-04-15T04:10:47.877Z,4.71
2023-04-15T04:13:21.994Z,4.70
2023-04-15T04:15:57.027Z,4.68
2023-04-15T04:18:32.687Z,4.68
2023-04-15T04:21:06.867Z,4.60
2023-04-15T04:23:40.987Z,4.50
2023-04-15T04:26:15.112Z,4.55
2023-04-15T04:28:49.269Z,4.61
2023-04-15T04:31:23.630Z,4.52
2023-04-15T04:33:59.518Z,4.51
2023-04-15T04:36:33.890Z,4.37
2023-04-15T04:39:07.927Z,4.38
2023-04-15T04:41:42.059Z,4.30
2023-04-15T04:44:16.469Z,4.28
2023-04-15T04:46:50.643Z,4.27
2023-04-15T04:49:26.274Z,4.30
2023-04-15T04:52:00.435Z,4.34
2023-04-15T04:54:34.476Z,4.22
2023-04-15T04:57:08.561Z,4.24
2023-04-15T04:59:42.728Z,4.28
2023-04-15T05:02:17.030Z,4.24
2023-04-15T05:04:54.551Z,4.22
2023-04-15T05:07:28.825Z,4.13
2023-04-15T05:10:03.582Z,4.22
2023-04-15T05:12:38.421Z,4.22
2023-04-15T05:15:12.930Z,4.33
2023-04-15T05:17:46.937Z,4.31
2023-04-15T05:20:22.453Z,4.22
2023-04-15T05:22:56.672Z,4.29
2023-04-15T05:25:30.842Z,4.30
2023-04-15T05:28:05.021Z,4.37
2023-04-15T05:30:39.601Z,4.42
2023-04-15T05:33:13.690Z,4.52
2023-04-15T05:35:49.230Z,4.52
2023-04-15T05:38:23.386Z,4.54
2023-04-15T05:40:57.712Z,4.56
2023-04-15T05:43:31.906Z,4.64
2023-04-15T05:46:06.222Z,4.65
2023-04-15T05:48:40.480Z,4.65
2023-04-15T05:51:15.980Z,4.74
2023-04-15T05:53:50.021Z,4.78
2023-04-15T05:56:24.804Z,4.88
2023-04-15T05:58:58.947Z,4.95
2023-04-15T06:01:34.343Z,4.99
2023-04-15T06:04:10.022Z,5.09
2023-04-15T06:06:46.117Z,5.14
2023-04-15T06:09:20.285Z,5.22
2023-04-15T06:11:54.896Z,5.25
2023-04-15T06:14:29.012Z,5.36
2023-04-15T06:17:03.084Z,5.48
2023-04-15T06:19:37.311Z,5.59
2023-04-15T06:22:12.809Z,5.72
2023-04-15T06:24:46.913Z,5.86
2023-04-15T06:27:21.282Z,5.98
2023-04-15T06:29:55.290Z,6.10
2023-04-15T06:32:29.402Z,6.26
2023-04-15T06:35:03.966Z,6.43
2023-04-15T06:37:39.668Z,6.64
2023-04-15T06:40:14.143Z,6.75
2023-04-15T06:42:48.723Z,6.86
2023-04-15T06:45:23.247Z,6.91
2023-04-15T06:47:57.287Z,6.98
2023-04-15T06:50:31.695Z,7.06
2023-04-15T06:56:12.700Z,7.20
2023-04-15T06:58:47.095Z,7.33
2023-04-15T07:01:21.331Z,7.41
2023-04-15T07:03:55.473Z,7.50
2023-04-15T07:06:29.497Z,7.48
2023-04-15T07:09:05.766Z,7.58
2023-04-15T07:11:39.987Z,7.71
2023-04-15T07:14:14.112Z,7.75
2023-04-15T07:16:48.439Z,7.84
2023-04-15T07:19:23.220Z,7.79
2023-04-15T07:21:57.198Z,8.01
2023-04-15T07:24:32.788Z,7.69
2023-04-15T07:27:07.486Z,7.91
2023-04-15T07:29:42.114Z,8.21
2023-04-15T07:32:16.427Z,8.04
2023-04-15T07:34:50.545Z,8.17
2023-04-15T07:37:24.638Z,8.41
2023-04-15T07:40:00.038Z,8.42
2023-04-15T07:42:34.573Z,8.72
2023-04-15T07:45:09.818Z,8.45
2023-04-15T07:47:43.942Z,8.76
2023-04-15T07:50:19.657Z,8.80
2023-04-15T07:52:54.136Z,8.82
2023-04-15T07:55:30.535Z,8.75
2023-04-15T07:58:04.826Z,8.97
2023-04-15T08:00:39.221Z,8.98
2023-04-15T08:03:13.583Z,9.37
2023-04-15T08:05:48.167Z,9.37
2023-04-15T08:08:22.224Z,9.20
2023-04-15T08:10:58.581Z,9.18
2023-04-15T08:13:32.643Z,9.86
2023-04-15T08:16:19.914Z,9.69
2023-04-15T08:18:56.436Z,9.54
2023-04-15T08:21:30.874Z,10.36
2023-04-15T08:24:05.268Z,10.88
2023-04-15T08:26:40.866Z,10.69
2023-04-15T08:29:15.050Z,10.63
2023-04-15T08:31:49.246Z,10.34
2023-04-15T08:34:23.416Z,10.09
2023-04-15T08:36:57.661Z,9.91
2023-04-15T08:39:31.751Z,10.21
2023-04-15T08:42:12.762Z,10.13
2023-04-15T08:44:49.386Z,10.48
2023-04-15T08:47:29.806Z,10.07
2023-04-15T08:50:05.319Z,10.36
2023-04-15T08:52:40.622Z,10.66
2023-04-15T08:55:16.324Z,10.13
2023-04-15T08:57:52.073Z,10.27
2023-04-15T09:00:26.969Z,10.35
2023-04-15T09:03:01.117Z,10.67
2023-04-15T09:05:37.759Z,10.60
2023-04-15T09:08:11.926Z,10.39
2023-04-15T09:10:46.025Z,10.42
2023-04-15T09:13:22.110Z,10.44
2023-04-15T09:15:57.175Z,10.90
2023-04-15T09:18:33.821Z,10.39
2023-04-15T09:21:09.337Z,10.28
2023-04-15T09:23:56.971Z,10.23
2023-04-15T09:26:33.110Z,10.51
2023-04-15T09:29:09.522Z,10.69
2023-04-15T09:31:43.753Z,10.29
2023-04-15T09:34:18.021Z,10.36
2023-04-15T09:36:57.792Z,10.39
2023-04-15T09:39:48.242Z,10.40
2023-04-15T09:42:24.477Z,10.58
2023-04-15T09:45:10.485Z,10.44
2023-04-15T09:47:44.666Z,10.84
2023-04-15T09:50:19.605Z,11.15
2023-04-15T09:52:53.673Z,10.81
2023-04-15T09:55:27.695Z,10.72
2023-04-15T09:58:01.722Z,10.31
2023-04-15T10:00:37.476Z,10.45
2023-04-15T10:03:12.826Z,10.20
2023-04-15T10:05:48.984Z,10.51
2023-04-15T10:08:24.966Z,10.40
2023-04-15T10:10:59.421Z,10.60
2023-04-15T10:13:36.039Z,10.04
2023-04-15T10:16:15.365Z,10.35
2023-04-15T10:18:55.940Z,10.66
2023-04-15T10:21:32.093Z,10.57
2023-04-15T10:24:07.131Z,10.58
2023-04-15T10:26:41.877Z,10.71
2023-04-15T10:29:16.235Z,10.64
2023-04-15T10:31:52.537Z,10.30
2023-04-15T10:34:27.852Z,10.22
2023-04-15T10:37:03.736Z,10.10
2023-04-15T10:39:45.076Z,10.42
2023-04-15T10:42:20.207Z,10.36
2023-04-15T10:44:58.019Z,10.24
2023-04-15T10:47:33.530Z,10.60
2023-04-15T10:50:09.116Z,10.62
2023-04-15T10:52:43.265Z,10.72
2023-04-15T10:55:21.209Z,10.17
2023-04-15T10:57:59.102Z,10.04
2023-04-15T11:00:35.544Z,10.26
2023-04-15T11:03:12.025Z,10.44
2023-04-15T11:05:53.571Z,10.42
2023-04-15T11:08:55.570Z,10.18
2023-04-15T11:12:08.357Z,9.97
2023-04-15T11:14:43.175Z,9.97
2023-04-15T11:17:28.633Z,9.99
2023-04-15T11:20:06.158Z,10.17
2023-04-15T11:22:47.785Z,10.37
2023-04-15T11:25:25.944Z,10.26
2023-04-15T11:28:01.561Z,10.30
2023-04-15T11:30:37.739Z,10.41
2023-04-15T11:33:13.733Z,10.44
2023-04-15T11:35:49.745Z,10.43
2023-04-15T11:38:23.812Z,10.38
2023-04-15T11:40:59.332Z,10.18
2023-04-15T11:43:35.379Z,10.26
2023-04-15T11:46:09.924Z,10.37
2023-04-15T11:48:45.843Z,10.40
2023-04-15T11:51:22.679Z,10.58
2023-04-15T11:53:55.847Z,10.69
2023-04-15T11:56:28.687Z,10.88
2023-04-15T11:59:02.070Z,10.25
2023-04-15T12:01:36.241Z,10.56
2023-04-15T12:04:19.943Z,10.56
2023-04-15T12:07:07.969Z,10.28
2023-04-15T12:10:04.943Z,10.27
2023-04-15T12:12:43.894Z,10.58
2023-04-15T12:15:16.736Z,10.50
2023-04-15T12:17:59.376Z,10.86
2023-04-15T12:20:55.028Z,11.00
2023-04-15T12:27:39.407Z,10.75
2023-04-15T12:30:17.561Z,10.54
2023-04-15T12:33:20.534Z,10.28
2023-04-15T12:36:08.215Z,10.55
2023-04-15T12:38:45.120Z,10.83
2023-04-15T12:41:22.105Z,10.55
2023-04-15T12:44:17.029Z,10.81
2023-04-15T12:47:08.584Z,10.74
2023-04-15T12:54:00.448Z,10.50
2023-04-15T12:56:34.033Z,10.44
2023-04-15T12:59:17.287Z,10.44
2023-04-15T13:09:24.279Z,10.40
2023-04-15T13:12:01.280Z,10.23
2023-04-15T13:14:44.393Z,10.37
2023-04-15T13:17:20.364Z,10.61
2023-04-15T13:27:58.658Z,10.50
2023-04-15T13:38:00.165Z,10.60
2023-04-15T13:40:41.052Z,10.33
2023-04-15T13:43:14.061Z,10.62
2023-04-15T13:45:47.758Z,10.51
2023-04-15T13:48:20.633Z,10.31
2023-04-15T13:50:53.450Z,10.10
2023-04-15T13:53:49.074Z,10.07
2023-04-15T14:01:09.211Z,9.61
2023-04-15T14:07:14.477Z,10.20
2023-04-15T14:09:58.953Z,10.33
2023-04-15T14:12:34.240Z,9.90
2023-04-15T14:15:08.074Z,9.96
2023-04-15T14:17:42.251Z,10.01
2023-04-15T14:20:17.190Z,9.86
2023-04-15T14:22:50.530Z,9.75
2023-04-15T14:25:33.289Z,9.81
2023-04-15T14:28:07.465Z,9.88
2023-04-15T14:30:40.337Z,9.55
2023-04-15T14:33:13.306Z,9.50
2023-04-15T14:35:46.875Z,9.62
2023-04-15T14:38:19.949Z,9.62
2023-04-15T14:40:54.216Z,9.52
2023-04-15T14:43:31.306Z,9.58
2023-04-15T14:46:24.829Z,9.42
2023-04-15T14:48:58.203Z,9.68
2023-04-15T14:51:31.325Z,9.43
2023-04-15T14:54:04.678Z,9.61
2023-04-15T14:56:42.782Z,9.52
2023-04-15T14:59:15.687Z,9.49
2023-04-15T15:01:48.958Z,9.59
2023-04-15T15:04:24.693Z,9.51
2023-04-15T15:06:57.555Z,9.24
2023-04-15T15:09:30.393Z,9.40
2023-04-15T15:12:04.947Z,9.12
2023-04-15T15:14:38.060Z,8.97
2023-04-15T15:17:11.648Z,8.69
2023-04-15T15:19:44.801Z,9.16
2023-04-15T15:22:20.126Z,9.13
2023-04-15T15:24:59.080Z,8.96
2023-04-15T15:27:33.748Z,8.84
2023-04-15T15:30:08.272Z,9.03
2023-04-15T15:32:41.960Z,9.06
2023-04-15T15:35:14.922Z,8.91
2023-04-15T15:37:48.850Z,8.98
2023-04-15T15:40:22.674Z,9.05
2023-04-15T15:42:56.950Z,8.74
2023-04-15T15:45:31.064Z,8.64
2023-04-15T15:48:06.054Z,8.66
2023-04-15T15:50:39.035Z,8.77
2023-04-15T15:53:20.831Z,8.96
2023-04-15T15:55:53.977Z,8.74
2023-04-15T15:58:28.348Z,8.75
2023-04-15T16:01:02.069Z,8.66
2023-04-15T16:03:35.137Z,8.77
2023-04-15T16:06:08.589Z,8.63
2023-04-15T16:08:42.095Z,8.76
2023-04-15T16:11:15.541Z,8.58
2023-04-15T16:13:49.833Z,8.68
2023-04-15T16:16:24.202Z,8.63
2023-04-15T16:18:58.217Z,8.65
2023-04-15T16:21:31.698Z,8.48
2023-04-15T16:24:04.665Z,8.49
2023-04-15T16:26:37.847Z,8.63
2023-04-15T16:29:12.190Z,8.44
2023-04-15T16:31:45.082Z,8.69
2023-04-15T16:34:18.914Z,8.70
2023-04-15T16:36:51.675Z,8.78
2023-04-15T16:39:24.752Z,8.68
2023-04-15T16:41:57.685Z,8.48
2023-04-15T16:44:31.825Z,8.62
2023-04-15T16:47:04.682Z,8.69
2023-04-15T16:49:37.553Z,8.67
2023-04-15T16:52:10.751Z,8.63
2023-04-15T16:54:43.622Z,8.48
2023-04-15T16:57:16.932Z,8.22
2023-04-15T16:59:52.533Z,8.14
2023-04-15T17:02:25.538Z,8.40
2023-04-15T17:04:58.556Z,8.38
2023-04-15T17:07:32.880Z,8.31
2023-04-15T17:10:06.780Z,8.37
2023-04-15T17:12:39.689Z,8.31
2023-04-15T17:15:14.016Z,8.28
2023-04-15T17:17:51.914Z,7.86
2023-04-15T17:20:26.340Z,8.10
2023-04-15T17:23:00.519Z,7.88
2023-04-15T17:25:34.546Z,7.63
2023-04-15T17:28:09.555Z,8.08
2023-04-15T17:30:44.502Z,8.25
2023-04-15T17:34:01.076Z,8.37
2023-04-15T17:36:30.799Z,8.19
2023-04-15T17:39:24.087Z,8.32
2023-04-15T17:42:16.911Z,8.27
2023-04-15T17:45:10.552Z,8.33
2023-04-15T17:48:05.208Z,8.36
2023-04-15T17:50:58.600Z,8.41
2023-04-15T17:53:51.431Z,8.31
2023-04-15T17:56:44.384Z,8.00
2023-04-15T17:59:37.661Z,8.10
2023-04-15T18:02:30.699Z,8.46
2023-04-15T18:05:25.124Z,8.44
2023-04-15T18:08:18.255Z,8.35
2023-04-15T18:11:12.408Z,8.04
2023-04-15T18:14:05.995Z,8.12
2023-04-15T18:16:59.121Z,8.04
2023-04-15T18:19:52.726Z,8.26
2023-04-15T18:22:27.191Z,8.28
2023-04-15T18:25:04.363Z,8.27
2023-04-15T18:27:39.200Z,8.13
2023-04-15T18:30:13.275Z,8.13
2023-04-15T18:32:46.221Z,8.04
2023-04-15T18:35:20.539Z,7.92
2023-04-15T18:37:55.195Z,8.13
2023-04-15T18:40:28.107Z,7.92
2023-04-15T18:43:01.124Z,8.09
2023-04-15T18:45:34.023Z,8.06
2023-04-15T18:48:07.510Z,7.97
2023-04-15T18:50:40.520Z,8.02
2023-04-15T18:53:15.313Z,7.89
2023-04-15T18:55:48.011Z,7.97
2023-04-15T18:58:21.102Z,7.99
2023-04-15T19:00:54.366Z,8.10
2023-04-15T19:03:27.604Z,8.07
2023-04-15T19:06:01.424Z,7.86
2023-04-15T19:08:36.058Z,8.07
2023-04-15T19:11:09.671Z,8.03
2023-04-15T19:13:42.512Z,8.16
2023-04-15T19:16:15.651Z,7.76
2023-04-15T19:18:48.819Z,8.01
2023-04-15T19:21:24.137Z,8.08
2023-04-15T19:23:58.754Z,8.03
2023-04-15T19:26:31.912Z,8.15
2023-04-15T19:29:05.101Z,7.80
2023-04-15T19:31:38.425Z,7.97
2023-04-15T19:34:11.585Z,8.08
2023-04-15T19:36:44.596Z,7.81
2023-04-15T19:39:19.640Z,8.21
2023-04-15T19:41:55.292Z,8.02
2023-04-15T19:44:28.454Z,7.50
2023-04-15T19:47:02.177Z,7.98
2023-04-15T19:49:35.303Z,7.80
2023-04-15T19:52:08.186Z,7.91
2023-04-15T19:54:42.488Z,7.89
2023-04-15T19:57:15.303Z,7.81
2023-04-15T19:59:48.140Z,7.89
2023-04-15T20:02:21.917Z,7.77
2023-04-15T20:04:54.913Z,7.86
2023-04-15T20:07:27.935Z,7.92
2023-04-15T20:10:02.239Z,7.93
2023-04-15T20:12:50.179Z,7.79
2023-04-15T20:15:25.271Z,7.81
2023-04-15T20:17:58.148Z,7.84
2023-04-15T20:20:31.070Z,7.79
2023-04-15T20:23:03.926Z,7.77
2023-04-15T20:25:38.855Z,7.92
2023-04-15T20:28:11.963Z,7.85
2023-04-15T20:30:44.772Z,7.84
2023-04-15T20:33:17.781Z,7.81
2023-04-15T20:35:50.558Z,7.79
2023-04-15T20:38:23.394Z,7.86
2023-04-15T20:40:58.046Z,7.93
2023-04-15T20:43:30.879Z,7.98
2023-04-15T20:46:13.812Z,8.10
2023-04-15T20:48:53.691Z,7.85
2023-04-15T20:51:27.346Z,7.90
2023-04-15T20:54:00.094Z,7.85
2023-04-15T20:56:34.302Z,7.79
2023-04-15T20:59:07.283Z,7.75
2023-04-15T21:01:40.851Z,7.83
2023-04-15T21:04:13.827Z,7.81
2023-04-15T21:06:46.598Z,7.97
2023-04-15T21:09:19.941Z,7.83
2023-04-15T21:12:01.233Z,7.96
2023-04-15T21:14:34.847Z,7.71
2023-04-15T21:17:10.883Z,7.83
2023-04-15T21:19:44.299Z,7.97
2023-04-15T21:22:17.078Z,7.94
2023-04-15T21:24:50.036Z,7.88
2023-04-15T21:27:25.594Z,7.88
2023-04-15T21:29:58.359Z,7.89
2023-04-15T21:32:31.603Z,7.82
2023-04-15T21:35:05.610Z,7.88
2023-04-15T21:37:38.560Z,7.82
2023-04-15T21:40:11.848Z,7.84
2023-04-15T21:42:46.034Z,7.82
2023-04-15T21:45:18.887Z,7.83
2023-04-15T21:47:56.978Z,7.85
2023-04-15T21:50:40.613Z,7.84
2023-04-15T21:53:13.462Z,7.85
2023-04-15T21:55:46.256Z,7.90
2023-04-15T21:58:20.940Z,7.99
2023-04-15T22:00:57.304Z,7.87
2023-04-15T22:03:33.302Z,7.82
2023-04-15T22:06:06.353Z,7.81
2023-04-15T22:08:52.432Z,7.82
2023-04-15T22:11:30.777Z,7.85
2023-04-15T22:14:05.985Z,7.82
2023-04-15T22:16:38.873Z,7.91
2023-04-15T22:19:11.737Z,7.86
2023-04-15T22:21:44.707Z,7.79
2023-04-15T22:24:32.449Z,7.83
2023-04-15T22:27:10.328Z,7.75
2023-04-15T22:29:44.532Z,7.87
2023-04-15T22:32:17.309Z,7.74
2023-04-15T22:34:50.370Z,7.83
2023-04-15T22:37:23.909Z,7.89
2023-04-15T22:39:56.718Z,7.85
2023-04-15T22:42:29.642Z,7.81
2023-04-15T22:45:03.907Z,7.82
2023-04-15T22:47:36.969Z,7.83
2023-04-15T22:50:10.133Z,7.85
2023-04-15T22:52:45.875Z,7.76
2023-04-15T22:55:18.734Z,7.83
2023-04-15T22:57:52.842Z,7.89
2023-04-15T23:00:26.987Z,7.79
2023-04-15T23:02:59.893Z,7.82
2023-04-15T23:05:33.130Z,7.80
2023-04-15T23:08:05.996Z,7.83
2023-04-15T23:10:39.914Z,7.80
2023-04-15T23:13:12.701Z,7.83
2023-04-15T23:15:47.161Z,7.79
2023-04-15T23:18:20.194Z,7.77
2023-04-15T23:20:52.919Z,7.80
2023-04-15T23:23:25.968Z,7.88
2023-04-15T23:25:58.943Z,7.88
2023-04-15T23:28:32.142Z,7.89
2023-04-15T23:31:06.746Z,7.80
2023-04-15T23:33:41.208Z,7.89
2023-04-15T23:36:14.019Z,7.92
2023-04-15T23:38:47.771Z,7.81
2023-04-15T23:41:20.698Z,7.86
2023-04-15T23:43:54.135Z,7.89
2023-04-15T23:47:28.580Z,7.80
2023-04-15T23:51:06.032Z,7.78
